Cookley, United Kingdom
Current Conditions -  °F | °C
As of 6:50 AM on Saturday 25 Oct 2014 (Local Time) from EGSD Reporting Station
Clear Clear  
Wind Chill: 41°   Ceiling: Unl
Heat Index: 45°   Visibility: 6mi
Dew Point: 45°   Wind: 7mph
Humidity: 100%   Direction: 220°SW
Pressure: 29.97"   Gusts: NA
Location:  52.32°N, 1.45°E
Report Text: EGSD 250550Z 22006KT CAVOK 07/07 Q1015
Loading
Personal Weather Stations






























Interactive Weather Map
Tropical Storm Tracking
New forecast layout! Learn more

10-Day Weather Forecast

Advertisements
Track Severe Weather on mobile